Time;durP1;ratioP1;P1;durP2;ratioP2;P2;SDS_P1;SDS_P2;PMS_P1;PMS_P2;Temp;Humidity;BMP_temperature;BMP_pressure;BME280_temperature;BME280_humidity;BME280_pressure;Samples;Min_cycle;Max_cycle;Signal;HPM_P1;HPM_P2
2022/03/14 00:01:09;;;;;;;16.73;10.27;;;10.30;64.70;;;;;;4996263;28;20042;-74
2022/03/14 00:03:41;;;;;;;18.05;11.40;;;10.30;64.90;;;;;;4997180;28;20482;-74
2022/03/14 00:06:08;;;;;;;17.13;11.23;;;10.20;65.60;;;;;;5012459;28;20038;-74
2022/03/14 00:08:33;;;;;;;16.08;10.70;;;10.10;66.90;;;;;;4996645;28;20653;-74
2022/03/14 00:10:59;;;;;;;16.52;10.57;;;10.00;68.10;;;;;;5012305;28;20042;-74
2022/03/14 00:13:26;;;;;;;17.90;10.82;;;10.00;69.70;;;;;;4995893;28;20077;-74
2022/03/14 00:15:52;;;;;;;15.88;10.45;;;10.00;73.10;;;;;;5012120;28;20049;-74
2022/03/14 00:18:18;;;;;;;14.35;9.38;;;10.00;74.00;;;;;;5012369;28;20406;-74
2022/03/14 00:20:46;;;;;;;15.40;10.10;;;9.90;79.40;;;;;;5013096;28;20046;-74
2022/03/14 00:23:12;;;;;;;15.85;9.80;;;9.90;78.00;;;;;;4996042;28;20080;-74
2022/03/14 00:25:37;;;;;;;16.92;9.18;;;10.00;80.40;;;;;;5012370;28;20140;-74
2022/03/14 00:28:03;;;;;;;13.75;8.95;;;10.00;82.80;;;;;;5011907;28;20030;-74
2022/03/14 00:30:29;;;;;;;12.75;7.75;;;10.10;86.60;;;;;;4996503;28;20044;-74
2022/03/14 00:32:56;;;;;;;12.65;8.13;;;10.10;90.60;;;;;;5011949;28;20034;-74
2022/03/14 00:35:22;;;;;;;12.00;7.65;;;10.30;92.20;;;;;;5028706;28;20053;-74
2022/03/14 00:37:47;;;;;;;13.48;8.27;;;10.40;92.50;;;;;;5028249;28;20038;-74
2022/03/14 00:40:14;;;;;;;12.38;7.60;;;10.40;93.00;;;;;;5010437;28;20494;-74
2022/03/14 00:42:40;;;;;;;12.32;7.25;;;10.40;93.70;;;;;;5012684;28;20049;-74
2022/03/14 00:45:06;;;;;;;13.00;8.00;;;10.50;93.50;;;;;;4991457;28;20042;-74
2022/03/14 00:47:32;;;;;;;12.55;7.97;;;10.50;93.70;;;;;;4993071;28;20121;-74
2022/03/14 00:49:58;;;;;;;12.80;7.93;;;10.40;93.90;;;;;;5008534;28;20121;-74
2022/03/14 00:52:23;;;;;;;11.60;7.57;;;10.40;93.70;;;;;;4996087;28;20033;-74
2022/03/14 00:54:49;;;;;;;13.27;8.65;;;10.40;93.80;;;;;;5010304;28;20092;-74
2022/03/14 00:57:15;;;;;;;13.20;8.77;;;10.40;94.10;;;;;;5012483;28;20128;-74
2022/03/14 00:59:41;;;;;;;13.13;7.78;;;10.40;94.40;;;;;;5011451;28;20491;-74
2022/03/14 01:02:08;;;;;;;12.38;7.97;;;10.40;94.50;;;;;;5011364;28;20045;-74
2022/03/14 01:04:34;;;;;;;13.50;8.63;;;10.40;94.80;;;;;;4994938;28;20042;-74
2022/03/14 01:07:00;;;;;;;12.85;8.60;;;10.40;95.30;;;;;;5011820;28;20453;-74
2022/03/14 01:09:25;;;;;;;13.05;8.57;;;10.40;95.50;;;;;;4995984;28;20034;-74
2022/03/14 01:11:51;;;;;;;13.13;8.07;;;10.30;95.80;;;;;;5011449;28;20053;-74
2022/03/14 01:14:17;;;;;;;12.48;8.10;;;10.30;96.10;;;;;;5003307;28;20125;-74
2022/03/14 01:16:42;;;;;;;11.50;7.78;;;10.20;96.30;;;;;;5009671;28;20398;-73
2022/03/14 01:19:11;;;;;;;13.20;8.45;;;10.10;96.30;;;;;;4995945;28;20046;-73
2022/03/14 01:21:38;;;;;;;12.73;7.78;;;10.00;96.80;;;;;;5009278;28;20045;-74
2022/03/14 01:24:05;;;;;;;11.75;7.55;;;9.90;96.90;;;;;;5012180;28;20427;-73
2022/03/14 01:26:33;;;;;;;12.30;8.15;;;9.90;96.60;;;;;;5011382;28;20041;-73
2022/03/14 01:28:59;;;;;;;11.45;7.60;;;9.90;96.70;;;;;;4994360;28;20037;-74
2022/03/14 01:31:26;;;;;;;11.57;7.30;;;9.80;97.60;;;;;;4995997;28;20042;-74
2022/03/14 01:33:51;;;;;;;11.35;7.30;;;9.80;97.10;;;;;;5011215;28;20034;-74
2022/03/14 01:36:18;;;;;;;12.27;8.05;;;9.80;97.10;;;;;;5011395;28;20041;-74
2022/03/14 01:38:44;;;;;;;11.02;7.00;;;9.80;97.20;;;;;;5010925;28;20045;-74
2022/03/14 01:41:10;;;;;;;10.50;6.72;;;9.80;97.30;;;;;;4994924;28;20066;-73
2022/03/14 01:43:36;;;;;;;12.13;7.40;;;9.80;98.00;;;;;;4994735;28;20046;-74
2022/03/14 01:46:02;;;;;;;11.38;7.55;;;9.80;99.90;;;;;;5011603;28;20052;-74
2022/03/14 01:48:28;;;;;;;9.73;6.38;;;9.70;99.90;;;;;;5012000;28;20030;-74
2022/03/14 01:50:54;;;;;;;12.07;7.05;;;9.70;99.90;;;;;;5011170;28;20161;-74
2022/03/14 01:53:20;;;;;;;12.75;7.90;;;9.60;99.90;;;;;;4994723;28;20038;-74
2022/03/14 01:55:48;;;;;;;10.65;7.05;;;9.60;99.90;;;;;;4994709;28;20046;-74
2022/03/14 01:58:15;;;;;;;11.27;6.80;;;9.60;99.90;;;;;;5011875;28;20502;-74
2022/03/14 02:00:42;;;;;;;10.20;6.85;;;9.50;99.90;;;;;;4994944;28;20402;-73
2022/03/14 02:03:07;;;;;;;9.15;6.10;;;9.60;99.90;;;;;;4995760;28;20099;-73
2022/03/14 02:05:37;;;;;;;13.50;6.88;;;9.60;99.90;;;;;;5010779;28;20033;-73
2022/03/14 02:08:04;;;;;;;11.30;6.65;;;9.60;99.90;;;;;;4998945;28;20042;-73
2022/03/14 02:10:30;;;;;;;11.23;6.35;;;9.70;99.50;;;;;;5030614;28;20513;-74
2022/03/14 02:12:56;;;;;;;10.75;6.15;;;9.70;99.10;;;;;;5015389;28;20069;-74
2022/03/14 02:15:22;;;;;;;12.38;6.47;;;9.70;99.00;;;;;;5013732;28;20038;-74
2022/03/14 02:17:47;;;;;;;9.73;6.28;;;9.70;98.90;;;;;;5015686;28;20395;-74
2022/03/14 02:20:13;;;;;;;9.95;5.80;;;9.70;99.50;;;;;;5014571;28;20037;-74
2022/03/14 02:22:38;;;;;;;9.45;5.93;;;9.80;99.10;;;;;;5014529;28;20042;-74
2022/03/14 02:25:10;;;;;;;11.45;6.25;;;9.80;99.30;;;;;;5015333;28;20073;-74
2022/03/14 02:27:37;;;;;;;9.60;6.25;;;9.80;99.80;;;;;;5015261;28;20091;-74
2022/03/14 02:30:03;;;;;;;9.52;5.55;;;9.70;99.90;;;;;;4998340;28;20125;-74
2022/03/14 02:32:28;;;;;;;10.13;6.15;;;9.70;99.90;;;;;;5031537;28;20072;-74
2022/03/14 02:34:54;;;;;;;9.57;6.28;;;9.70;99.90;;;;;;5014192;28;20490;-74
2022/03/14 02:37:19;;;;;;;9.73;5.78;;;9.60;99.90;;;;;;5010095;28;20038;-74
2022/03/14 02:39:47;;;;;;;9.13;5.55;;;9.60;99.80;;;;;;5013888;28;20133;-74
2022/03/14 02:42:13;;;;;;;10.23;6.40;;;9.60;99.80;;;;;;4997874;28;20049;-74
2022/03/14 02:44:41;;;;;;;9.32;5.90;;;9.60;99.90;;;;;;5014770;28;20046;-74
2022/03/14 02:47:08;;;;;;;9.27;5.57;;;9.60;99.90;;;;;;4994365;28;20080;-74
2022/03/14 02:49:34;;;;;;;10.07;5.88;;;9.60;99.90;;;;;;5002604;28;20156;-73
2022/03/14 02:52:00;;;;;;;9.43;6.05;;;9.60;99.90;;;;;;5029235;28;20091;-74
2022/03/14 02:54:25;;;;;;;8.73;5.10;;;9.60;99.90;;;;;;5013878;28;20499;-74
2022/03/14 02:56:52;;;;;;;10.68;5.55;;;9.60;99.80;;;;;;4998562;28;20119;-73
2022/03/14 02:59:17;;;;;;;8.65;5.53;;;9.60;99.90;;;;;;4995115;28;20038;-74
2022/03/14 03:01:43;;;;;;;10.25;5.65;;;9.50;99.90;;;;;;4998324;28;20052;-74
2022/03/14 03:04:09;;;;;;;10.18;5.25;;;9.60;99.90;;;;;;5014776;28;20030;-74
2022/03/14 03:06:35;;;;;;;8.77;5.40;;;9.60;99.90;;;;;;5031046;28;20041;-74
2022/03/14 03:09:03;;;;;;;8.25;5.07;;;9.60;99.90;;;;;;4997412;28;20030;-74
2022/03/14 03:11:29;;;;;;;9.43;5.40;;;9.60;99.90;;;;;;4998133;28;20049;-74
2022/03/14 03:13:55;;;;;;;9.07;4.75;;;9.70;99.90;;;;;;4996995;28;20077;-74
2022/03/14 03:16:22;;;;;;;8.57;5.00;;;9.80;99.90;;;;;;4996951;28;20456;-74
2022/03/14 03:18:47;;;;;;;8.40;4.97;;;9.80;99.90;;;;;;5011671;28;20050;-74
2022/03/14 03:21:15;;;;;;;8.85;4.93;;;9.80;99.90;;;;;;5014204;28;20104;-74
2022/03/14 03:23:42;;;;;;;8.30;4.75;;;9.80;99.90;;;;;;4992869;28;20048;-74
2022/03/14 03:26:08;;;;;;;7.60;4.65;;;9.80;99.90;;;;;;5010854;28;20125;-74
2022/03/14 03:28:37;;;;;;;9.07;4.97;;;9.80;99.90;;;;;;5016918;28;20551;-74
2022/03/14 03:31:16;;;;;;;8.95;4.57;;;9.80;99.90;;;;;;5011569;28;20064;-74
2022/03/14 03:33:42;;;;;;;8.23;4.68;;;9.70;99.90;;;;;;5012935;28;20133;-74
2022/03/14 03:36:08;;;;;;;8.10;4.90;;;9.80;99.90;;;;;;4997385;28;20060;-74
2022/03/14 03:38:35;;;;;;;7.63;4.07;;;9.80;99.90;;;;;;5012642;28;20045;-74
2022/03/14 03:41:01;;;;;;;7.97;4.35;;;9.80;99.90;;;;;;5013732;28;20054;-74
2022/03/14 03:43:27;;;;;;;8.45;4.28;;;9.80;99.90;;;;;;4996549;28;20049;-74
2022/03/14 03:45:52;;;;;;;7.47;4.00;;;9.90;99.90;;;;;;5014034;28;20463;-74
2022/03/14 03:48:18;;;;;;;6.63;3.63;;;10.00;99.90;;;;;;4996605;28;20168;-74
2022/03/14 03:50:45;;;;;;;6.25;3.33;;;10.00;99.90;;;;;;5013631;28;20091;-74
2022/03/14 03:53:10;;;;;;;6.00;3.40;;;10.00;99.90;;;;;;5009525;28;20482;-74
2022/03/14 03:55:36;;;;;;;6.78;3.60;;;10.00;99.90;;;;;;5013543;28;20048;-74
2022/03/14 03:58:02;;;;;;;7.15;3.90;;;9.90;99.90;;;;;;5012128;28;20513;-74
2022/03/14 04:00:27;;;;;;;7.80;4.15;;;9.80;99.90;;;;;;5013471;28;20045;-74
2022/03/14 04:02:53;;;;;;;6.53;3.70;;;9.80;99.90;;;;;;5029546;28;20034;-74
2022/03/14 04:05:20;;;;;;;6.47;3.40;;;9.80;99.90;;;;;;5013265;28;20041;-74
2022/03/14 04:07:46;;;;;;;5.95;3.28;;;9.80;99.90;;;;;;4996356;28;20088;-74
2022/03/14 04:10:15;;;;;;;7.10;3.08;;;9.90;99.90;;;;;;5013274;28;20030;-74
2022/03/14 04:12:44;;;;;;;7.35;3.40;;;10.00;99.90;;;;;;4993308;28;20034;-74
2022/03/14 04:15:10;;;;;;;6.55;3.22;;;10.00;99.90;;;;;;4993943;28;20038;-74
2022/03/14 04:17:41;;;;;;;7.35;3.10;;;10.10;99.90;;;;;;5012249;28;20049;-74
2022/03/14 04:20:08;;;;;;;6.90;3.22;;;10.10;99.90;;;;;;4996835;28;20133;-74
2022/03/14 04:22:38;;;;;;;8.02;3.05;;;10.20;99.90;;;;;;5011284;28;20048;-74
2022/03/14 04:25:05;;;;;;;5.97;2.92;;;10.20;99.90;;;;;;4996557;28;20044;-74
2022/03/14 04:27:31;;;;;;;6.70;3.63;;;10.20;99.90;;;;;;5028556;28;20042;-74
2022/03/14 04:29:58;;;;;;;7.53;3.05;;;10.30;99.90;;;;;;5012744;28;20121;-74
2022/03/14 04:32:24;;;;;;;6.93;3.13;;;10.40;99.90;;;;;;5012098;28;20120;-74
2022/03/14 04:34:50;;;;;;;5.30;2.65;;;10.40;99.90;;;;;;5012816;28;20124;-74
2022/03/14 04:37:15;;;;;;;6.72;3.05;;;10.30;99.90;;;;;;4996540;28;20053;-74
2022/03/14 04:39:42;;;;;;;6.18;3.42;;;10.20;99.90;;;;;;4995349;28;20053;-74
2022/03/14 04:42:09;;;;;;;5.63;2.70;;;10.20;99.90;;;;;;5012828;28;20060;-74
2022/03/14 04:44:35;;;;;;;6.35;3.08;;;10.10;99.90;;;;;;4994991;28;20442;-74
2022/03/14 04:47:01;;;;;;;4.40;2.50;;;10.10;99.90;;;;;;5012632;28;20038;-74
2022/03/14 04:49:28;;;;;;;5.53;2.85;;;10.10;99.90;;;;;;5011639;28;20038;-74
2022/03/14 04:51:55;;;;;;;6.22;3.10;;;10.00;99.90;;;;;;5011678;28;20034;-74
2022/03/14 04:54:21;;;;;;;5.03;2.72;;;10.00;99.90;;;;;;5011037;28;20116;-74
2022/03/14 04:56:47;;;;;;;5.22;2.88;;;10.00;99.90;;;;;;4995829;28;20402;-74
2022/03/14 04:59:13;;;;;;;6.30;2.95;;;10.00;99.90;;;;;;4995371;28;20045;-74
2022/03/14 05:01:39;;;;;;;5.65;2.83;;;9.90;99.90;;;;;;4996117;28;20494;-74
2022/03/14 05:04:05;;;;;;;6.05;2.90;;;9.90;99.90;;;;;;5027864;28;20049;-74
2022/03/14 05:06:32;;;;;;;5.97;3.10;;;10.00;99.90;;;;;;5009604;28;20044;-74
2022/03/14 05:08:58;;;;;;;6.40;3.22;;;10.00;99.90;;;;;;5007528;28;20092;-74
2022/03/14 05:11:24;;;;;;;5.53;2.90;;;10.00;99.90;;;;;;4995959;28;20069;-74
2022/03/14 05:13:50;;;;;;;6.22;2.92;;;10.00;99.90;;;;;;5011268;28;20073;-74
2022/03/14 05:16:15;;;;;;;5.15;2.78;;;10.00;99.90;;;;;;4995098;28;20050;-74
2022/03/14 05:18:41;;;;;;;4.82;2.70;;;10.00;99.90;;;;;;5011277;28;20074;-74
2022/03/14 05:21:06;;;;;;;5.90;3.00;;;10.00;99.90;;;;;;5012298;28;20064;-74
2022/03/14 05:23:32;;;;;;;5.03;2.80;;;10.00;99.90;;;;;;5008229;28;20045;-74
2022/03/14 05:25:59;;;;;;;4.75;2.40;;;10.20;99.90;;;;;;5012108;28;20113;-74
2022/03/14 05:28:25;;;;;;;5.55;2.67;;;10.30;99.90;;;;;;5026339;28;20080;-74
2022/03/14 05:30:51;;;;;;;4.63;2.60;;;10.20;99.90;;;;;;5028667;28;20037;-74
2022/03/14 05:33:16;;;;;;;6.78;2.83;;;10.20;99.90;;;;;;4991840;28;20059;-74
2022/03/14 05:35:42;;;;;;;5.20;2.78;;;10.20;99.90;;;;;;4992633;28;20129;-74
2022/03/14 05:38:07;;;;;;;5.35;2.80;;;10.30;99.90;;;;;;4999504;28;20045;-74
2022/03/14 05:40:33;;;;;;;4.93;2.80;;;10.30;99.90;;;;;;4995592;28;20133;-74
2022/03/14 05:43:06;;;;;;;4.50;2.60;;;10.40;99.90;;;;;;4998801;28;20042;-74
2022/03/14 05:45:31;;;;;;;5.15;3.05;;;10.40;99.90;;;;;;5015976;28;20046;-74
2022/03/14 05:47:57;;;;;;;6.22;2.97;;;10.30;99.90;;;;;;5031260;28;20121;-74
2022/03/14 05:50:24;;;;;;;4.82;2.55;;;10.20;99.90;;;;;;4999644;28;20065;-74
2022/03/14 05:52:50;;;;;;;5.75;2.85;;;10.30;99.90;;;;;;5030240;28;20034;-74
2022/03/14 05:55:16;;;;;;;6.07;3.30;;;10.30;99.90;;;;;;5013356;28;20430;-74
2022/03/14 05:57:41;;;;;;;5.57;2.83;;;10.30;99.90;;;;;;5014998;28;20046;-74
2022/03/14 06:00:08;;;;;;;5.63;2.95;;;10.20;99.90;;;;;;5016041;28;20049;-74
2022/03/14 06:02:35;;;;;;;5.97;3.28;;;10.20;99.90;;;;;;4998562;28;20050;-74
2022/03/14 06:05:00;;;;;;;5.57;3.17;;;10.20;99.90;;;;;;5015484;28;20037;-74
2022/03/14 06:07:26;;;;;;;6.82;3.50;;;10.20;99.90;;;;;;4997936;28;20137;-74
2022/03/14 06:09:52;;;;;;;6.95;3.38;;;10.30;99.90;;;;;;5015565;28;20040;-74
2022/03/14 06:12:25;;;;;;;7.00;3.70;;;10.20;99.90;;;;;;5014475;28;20038;-74
2022/03/14 06:14:56;;;;;;;5.97;3.28;;;10.30;99.90;;;;;;4999063;28;20074;-74
2022/03/14 06:17:22;;;;;;;5.97;3.10;;;10.10;99.90;;;;;;4997268;28;20045;-74
2022/03/14 06:19:48;;;;;;;5.85;2.75;;;10.10;99.90;;;;;;4998281;28;20037;-75
2022/03/14 06:22:18;;;;;;;6.10;3.40;;;10.20;99.90;;;;;;5013029;28;20052;-75
2022/03/14 06:24:46;;;;;;;6.80;3.25;;;10.20;99.90;;;;;;5015115;28;20046;-74
2022/03/14 06:27:12;;;;;;;6.72;3.30;;;10.10;99.90;;;;;;5014414;28;20044;-74
2022/03/14 06:29:38;;;;;;;7.32;3.50;;;10.20;99.90;;;;;;5014482;28;20033;-74
2022/03/14 06:32:04;;;;;;;5.95;3.20;;;10.10;99.90;;;;;;5014178;28;20099;-74
2022/03/14 06:34:30;;;;;;;6.15;3.10;;;10.20;99.90;;;;;;5015556;28;20042;-74
2022/03/14 06:36:56;;;;;;;6.63;3.35;;;10.20;99.90;;;;;;5014195;28;20120;-75
2022/03/14 06:39:22;;;;;;;6.40;3.45;;;10.20;99.90;;;;;;5013760;28;20141;-74
2022/03/14 06:41:48;;;;;;;6.22;3.15;;;10.10;99.90;;;;;;5012770;28;20046;-74
2022/03/14 06:44:14;;;;;;;6.65;3.40;;;10.10;99.90;;;;;;5013898;28;20068;-74
2022/03/14 06:46:40;;;;;;;4.75;2.40;;;10.10;99.90;;;;;;5005344;28;20034;-74
2022/03/14 06:49:06;;;;;;;7.00;3.28;;;10.20;99.90;;;;;;4994658;28;20048;-75
2022/03/14 06:51:33;;;;;;;6.20;3.53;;;10.10;99.90;;;;;;4996312;28;20398;-75
2022/03/14 06:53:58;;;;;;;6.45;3.40;;;10.10;99.90;;;;;;4994550;28;20034;-75
2022/03/14 06:56:25;;;;;;;7.32;3.65;;;10.00;99.90;;;;;;5013489;28;20195;-75
2022/03/14 06:58:50;;;;;;;6.53;3.25;;;10.00;99.90;;;;;;4996436;28;20049;-75
2022/03/14 07:01:16;;;;;;;6.88;3.40;;;10.00;99.90;;;;;;5012481;28;20037;-75
2022/03/14 07:03:42;;;;;;;7.00;3.38;;;10.00;99.90;;;;;;4996360;28;20121;-77
2022/03/14 07:06:07;;;;;;;6.45;3.55;;;10.00;99.90;;;;;;4996096;28;20104;-76
2022/03/14 07:08:33;;;;;;;6.70;3.53;;;10.00;99.90;;;;;;4997105;28;20040;-76
2022/03/14 07:10:58;;;;;;;6.50;3.20;;;9.90;99.90;;;;;;5012016;28;20124;-76
2022/03/14 07:13:24;;;;;;;7.32;3.60;;;10.00;99.90;;;;;;5013343;28;20069;-76
2022/03/14 07:15:50;;;;;;;7.10;3.67;;;9.90;99.90;;;;;;4992329;28;20100;-76
2022/03/14 07:18:15;;;;;;;7.63;3.38;;;9.90;99.90;;;;;;4996070;28;20037;-76
2022/03/14 07:20:41;;;;;;;6.45;3.42;;;9.90;99.90;;;;;;5011477;28;20030;-76
2022/03/14 07:23:07;;;;;;;6.70;3.38;;;10.00;99.90;;;;;;5004390;28;20037;-76
2022/03/14 07:25:37;;;;;;;9.18;3.97;;;10.10;99.90;;;;;;5001691;28;20042;-76
2022/03/14 07:28:08;;;;;;;6.43;3.50;;;10.00;99.90;;;;;;5001398;28;20034;-77
2022/03/14 07:30:35;;;;;;;6.90;4.00;;;9.90;99.90;;;;;;5023743;28;20085;-76
2022/03/14 07:33:00;;;;;;;6.78;3.45;;;9.90;99.90;;;;;;5013694;28;20037;-76
2022/03/14 07:35:27;;;;;;;7.47;3.90;;;10.00;99.90;;;;;;4995181;28;20045;-76
2022/03/14 07:37:53;;;;;;;7.10;3.95;;;10.00;99.90;;;;;;5012416;28;20538;-76
2022/03/14 07:40:19;;;;;;;6.03;3.40;;;9.90;99.90;;;;;;4968514;28;1029551;-76
2022/03/14 07:42:46;;;;;;;7.00;4.35;;;9.90;99.90;;;;;;4993680;28;20305;-76
2022/03/14 07:45:14;;;;;;;7.13;3.70;;;10.00;99.90;;;;;;4992701;28;20136;-76
2022/03/14 07:47:40;;;;;;;7.00;3.72;;;10.00;99.90;;;;;;4996966;28;20462;-76
2022/03/14 07:50:07;;;;;;;6.00;3.45;;;10.00;99.90;;;;;;5003719;28;20126;-76
2022/03/14 07:52:34;;;;;;;6.50;3.58;;;10.00;99.90;;;;;;5002474;28;21200;-76
2022/03/14 07:55:00;;;;;;;6.60;3.92;;;10.00;99.90;;;;;;4991407;28;20048;-75
2022/03/14 07:57:26;;;;;;;6.47;3.72;;;10.10;99.90;;;;;;4986686;28;20046;-76
2022/03/14 07:59:52;;;;;;;6.63;3.88;;;10.10;99.90;;;;;;5012990;28;20041;-75
2022/03/14 08:02:17;;;;;;;6.82;4.05;;;10.00;99.90;;;;;;4995971;28;20496;-75
2022/03/14 08:04:43;;;;;;;8.57;4.10;;;10.00;99.90;;;;;;5009962;28;20042;-75
2022/03/14 08:07:09;;;;;;;6.40;3.60;;;10.00;99.90;;;;;;4987266;28;20042;-76
2022/03/14 08:09:35;;;;;;;7.03;3.90;;;10.00;99.90;;;;;;4987948;28;20418;-76
2022/03/14 08:12:04;;;;;;;7.20;4.20;;;10.00;99.90;;;;;;4974960;28;20061;-76
2022/03/14 08:14:30;;;;;;;7.10;4.07;;;10.00;99.90;;;;;;4986068;28;20187;-76
2022/03/14 08:16:56;;;;;;;7.97;4.40;;;10.00;99.90;;;;;;4984357;28;20070;-76
2022/03/14 08:19:22;;;;;;;6.30;3.97;;;10.00;99.90;;;;;;4971547;28;20137;-76
2022/03/14 08:21:47;;;;;;;8.15;4.53;;;10.00;99.90;;;;;;4995933;28;20438;-76
2022/03/14 08:24:14;;;;;;;7.18;4.53;;;10.00;99.90;;;;;;4975478;28;20044;-76
2022/03/14 08:26:41;;;;;;;8.18;4.10;;;10.00;99.90;;;;;;5006781;28;20129;-76
2022/03/14 08:29:07;;;;;;;8.25;4.25;;;10.10;99.90;;;;;;4988390;28;20561;-76
2022/03/14 08:31:32;;;;;;;7.82;4.05;;;10.20;99.90;;;;;;4990099;28;20045;-76
2022/03/14 08:33:59;;;;;;;7.60;4.47;;;10.20;99.90;;;;;;4970423;28;20482;-75
2022/03/14 08:36:24;;;;;;;7.18;4.35;;;10.10;99.90;;;;;;4977488;28;20409;-76
2022/03/14 08:38:50;;;;;;;7.55;4.28;;;10.20;99.90;;;;;;4993941;28;20034;-76
2022/03/14 08:41:16;;;;;;;7.15;3.97;;;10.20;99.90;;;;;;5006856;28;20049;-76
2022/03/14 08:43:43;;;;;;;7.78;4.20;;;10.20;99.90;;;;;;4991265;28;20056;-76
2022/03/14 08:46:10;;;;;;;9.60;4.97;;;10.20;99.90;;;;;;5009851;28;20582;-76
2022/03/14 08:48:35;;;;;;;8.18;4.97;;;10.30;99.90;;;;;;4978189;28;20042;-76
2022/03/14 08:51:01;;;;;;;8.77;4.88;;;10.20;99.90;;;;;;4984245;28;20395;-76
2022/03/14 08:53:26;;;;;;;8.88;5.00;;;10.30;99.90;;;;;;4986527;28;20176;-76
2022/03/14 08:55:53;;;;;;;8.38;4.63;;;10.30;99.90;;;;;;4986075;28;20077;-76
2022/03/14 08:58:18;;;;;;;7.90;4.63;;;10.30;99.90;;;;;;4985529;28;20498;-76
2022/03/14 09:00:44;;;;;;;8.07;4.85;;;10.30;99.90;;;;;;4970988;28;20046;-76
2022/03/14 09:03:10;;;;;;;9.25;4.88;;;10.40;99.90;;;;;;4973926;28;20057;-76
2022/03/14 09:05:35;;;;;;;7.90;5.10;;;10.50;99.90;;;;;;4986120;28;20048;-76
2022/03/14 09:08:02;;;;;;;9.63;4.93;;;10.40;99.90;;;;;;4984284;28;20041;-76
2022/03/14 09:10:31;;;;;;;9.18;5.07;;;10.40;99.90;;;;;;4971728;28;20068;-76
2022/03/14 09:12:57;;;;;;;8.15;4.95;;;10.40;99.90;;;;;;4973740;28;20037;-76
2022/03/14 09:15:24;;;;;;;8.57;5.47;;;10.30;99.90;;;;;;4998803;28;20410;-76
2022/03/14 09:17:57;;;;;;;7.63;4.63;;;10.30;99.90;;;;;;5002293;28;20506;-76
2022/03/14 09:20:23;;;;;;;;;;;10.30;99.90;;;;;;4987019;28;20128;-76
2022/03/14 09:22:50;;;;;;;8.45;5.38;;;10.40;99.90;;;;;;4997901;28;20386;-76
2022/03/14 09:25:16;;;;;;;9.95;5.38;;;10.50;99.90;;;;;;4993450;28;20057;-75
2022/03/14 09:27:43;;;;;;;7.90;5.40;;;10.50;99.90;;;;;;4969411;28;20046;-76
2022/03/14 09:30:10;;;;;;;8.27;5.60;;;10.50;99.90;;;;;;4999491;28;20045;-76
2022/03/14 09:32:36;;;;;;;9.50;5.85;;;10.60;99.90;;;;;;4967493;28;20070;-76
2022/03/14 09:35:03;;;;;;;11.20;6.15;;;10.60;99.90;;;;;;4987327;28;20296;-77
2022/03/14 09:37:29;;;;;;;11.48;6.55;;;10.50;99.90;;;;;;4987990;28;20554;-76
2022/03/14 09:39:55;;;;;;;9.77;5.93;;;10.60;99.90;;;;;;5011770;28;20446;-76
2022/03/14 09:42:24;;;;;;;9.60;6.07;;;10.60;99.90;;;;;;5015212;28;20053;-78
2022/03/14 09:44:54;;;;;;;9.68;6.70;;;10.70;99.90;;;;;;4995333;28;20042;-75
2022/03/14 09:47:24;;;;;;;10.52;6.47;;;10.70;99.90;;;;;;4995992;28;20034;-75
2022/03/14 09:49:56;;;;;;;9.95;6.18;;;10.70;99.90;;;;;;4991065;28;20664;-75
2022/03/14 09:52:22;;;;;;;9.68;6.45;;;10.70;99.90;;;;;;4978844;28;20034;-75
2022/03/14 09:54:49;;;;;;;11.23;8.00;;;10.70;99.90;;;;;;4983879;28;20112;-75
2022/03/14 09:57:14;;;;;;;12.00;8.50;;;10.50;99.90;;;;;;4975215;28;20050;-75
2022/03/14 09:59:42;;;;;;;12.73;8.27;;;10.50;99.90;;;;;;4970668;28;20044;-75
2022/03/14 10:02:12;;;;;;;14.57;10.82;;;10.40;99.90;;;;;;5003070;28;20551;-75
2022/03/14 10:04:38;;;;;;;14.95;10.68;;;10.50;99.90;;;;;;4989199;28;20046;-76
2022/03/14 10:07:05;;;;;;;17.05;12.10;;;10.10;99.90;;;;;;5017400;28;20041;-75
2022/03/14 10:09:30;;;;;;;15.65;11.30;;;10.00;99.90;;;;;;4989705;28;20050;-75
2022/03/14 10:11:57;;;;;;;18.58;12.48;;;9.90;99.90;;;;;;5008018;28;20034;-75
2022/03/14 10:14:23;;;;;;;17.30;11.93;;;9.90;99.90;;;;;;4995273;28;20045;-75
2022/03/14 10:16:54;;;;;;;18.75;12.68;;;9.80;99.90;;;;;;5008697;28;20042;-75
2022/03/14 10:19:20;;;;;;;17.05;12.07;;;9.60;99.90;;;;;;4991901;28;20077;-75
2022/03/14 10:21:46;;;;;;;15.52;10.32;;;9.50;99.90;;;;;;5009805;28;20557;-75
2022/03/14 10:24:13;;;;;;;10.80;6.68;;;9.50;99.90;;;;;;4982141;28;20502;-75
2022/03/14 10:26:41;;;;;;;11.15;6.05;;;9.50;99.90;;;;;;5011119;28;20386;-75
2022/03/14 10:29:12;;;;;;;11.10;5.30;;;9.50;99.90;;;;;;5015051;28;20049;-75
2022/03/14 10:31:41;;;;;;;12.68;6.05;;;9.50;99.90;;;;;;5014873;28;20045;-75
2022/03/14 10:34:12;;;;;;;12.65;6.25;;;9.50;99.90;;;;;;4998411;28;20049;-75
2022/03/14 10:36:39;;;;;;;11.00;5.47;;;9.50;99.90;;;;;;4997840;28;20410;-75
2022/03/14 10:39:18;;;;;;;11.52;6.72;;;9.40;99.90;;;;;;4995413;28;20042;-75
2022/03/14 10:41:46;;;;;;;12.07;7.22;;;9.50;99.90;;;;;;5012032;28;20034;-75
2022/03/14 10:44:23;;;;;;;14.57;8.02;;;9.50;99.90;;;;;;5015004;28;20046;-75
2022/03/14 10:46:48;;;;;;;15.13;8.52;;;9.40;99.90;;;;;;4997301;28;20046;-75
2022/03/14 10:49:15;;;;;;;18.35;9.45;;;9.50;99.90;;;;;;5014181;28;20057;-75
2022/03/14 10:52:00;;;;;;;16.65;9.82;;;9.40;99.90;;;;;;5009245;28;20068;-75
2022/03/14 10:54:26;;;;;;;16.13;9.07;;;9.40;99.90;;;;;;5005526;28;20044;-75
2022/03/14 10:57:01;;;;;;;16.25;9.77;;;9.40;99.90;;;;;;5012226;28;20376;-75
2022/03/14 10:59:37;;;;;;;21.17;12.50;;;9.60;99.90;;;;;;5026991;28;20038;-76
2022/03/14 11:02:05;;;;;;;17.27;9.85;;;9.70;99.90;;;;;;5007845;28;20098;-75
2022/03/14 11:04:46;;;;;;;19.73;11.07;;;9.70;99.90;;;;;;5026953;28;20104;-76
2022/03/14 11:07:13;;;;;;;15.85;9.38;;;9.80;99.90;;;;;;5014213;28;20079;-75
2022/03/14 11:09:42;;;;;;;18.05;10.05;;;9.90;99.90;;;;;;5013167;28;20030;-75
2022/03/14 11:12:11;;;;;;;18.65;10.35;;;9.90;99.90;;;;;;5014152;28;20048;-75
2022/03/14 11:14:36;;;;;;;18.75;10.57;;;9.90;99.90;;;;;;5030627;28;20041;-75
2022/03/14 11:17:19;;;;;;;19.45;11.10;;;10.00;99.90;;;;;;5011325;28;20434;-75
2022/03/14 11:19:46;;;;;;;19.35;9.55;;;10.10;99.90;;;;;;5012883;28;20072;-75
2022/03/14 11:22:13;;;;;;;17.48;9.63;;;10.20;99.90;;;;;;5010031;28;20052;-76
2022/03/14 11:24:41;;;;;;;20.10;9.85;;;10.30;99.90;;;;;;5010128;28;20080;-75
2022/03/14 11:27:11;;;;;;;17.45;9.52;;;10.10;99.90;;;;;;5013293;28;20495;-75
2022/03/14 11:29:40;;;;;;;23.58;10.10;;;10.00;99.90;;;;;;4996876;28;20038;-75
2022/03/14 11:32:07;;;;;;;15.82;8.30;;;10.00;99.90;;;;;;5009620;28;20042;-75
2022/03/14 11:34:35;;;;;;;18.45;9.50;;;10.00;99.90;;;;;;5003298;28;20042;-75
2022/03/14 11:37:01;;;;;;;17.05;8.13;;;10.00;99.90;;;;;;5013548;28;20046;-75
2022/03/14 11:39:28;;;;;;;18.10;8.40;;;10.10;99.90;;;;;;4990968;28;20046;-75
2022/03/14 11:41:58;;;;;;;18.02;7.25;;;10.10;99.90;;;;;;5013277;28;20177;-75
2022/03/14 11:44:25;;;;;;;16.40;7.57;;;10.20;99.90;;;;;;4995529;28;20073;-75
2022/03/14 11:46:53;;;;;;;13.43;6.53;;;10.20;99.90;;;;;;5003207;28;20036;-75
2022/03/14 11:49:19;;;;;;;17.77;7.30;;;10.20;99.90;;;;;;4996386;28;20042;-75
2022/03/14 11:51:45;;;;;;;14.55;7.47;;;10.20;99.90;;;;;;5019715;28;20170;-75
2022/03/14 11:54:12;;;;;;;16.80;7.82;;;10.20;99.90;;;;;;4993182;28;20046;-75
2022/03/14 11:56:51;;;;;;;18.80;9.75;;;10.30;99.90;;;;;;5012380;28;20042;-75
2022/03/14 11:59:26;;;;;;;18.45;9.38;;;10.10;99.90;;;;;;4992641;28;20089;-75
2022/03/14 12:01:55;;;;;;;19.67;9.35;;;10.20;99.90;;;;;;5000831;28;20042;-75
2022/03/14 12:04:38;;;;;;;17.30;8.57;;;10.10;99.90;;;;;;5024445;28;20383;-75
2022/03/14 12:07:10;;;;;;;15.82;9.13;;;10.20;99.90;;;;;;4995795;28;20490;-75
2022/03/14 12:09:37;;;;;;;14.45;8.45;;;10.20;99.90;;;;;;5011209;28;20485;-75
2022/03/14 12:12:05;;;;;;;17.70;8.38;;;10.30;99.90;;;;;;4992692;28;20039;-75
2022/03/14 12:14:53;;;;;;;20.48;9.88;;;10.20;99.90;;;;;;4993223;28;20494;-75
2022/03/14 12:17:19;;;;;;;20.00;10.50;;;10.10;99.90;;;;;;5012602;28;20491;-75
2022/03/14 12:19:54;;;;;;;19.85;10.07;;;10.10;99.90;;;;;;4993822;28;20125;-75
2022/03/14 12:22:29;;;;;;;18.35;10.57;;;10.20;99.90;;;;;;5011519;28;20046;-75
2022/03/14 12:24:55;;;;;;;21.05;10.60;;;10.30;99.90;;;;;;5009104;28;20042;-75
2022/03/14 12:27:35;;;;;;;19.45;10.50;;;10.30;99.90;;;;;;5010791;28;20044;-75
2022/03/14 12:30:16;;;;;;;18.30;10.43;;;10.20;99.90;;;;;;5011417;28;20037;-75
2022/03/14 12:32:44;;;;;;;19.77;10.88;;;10.20;99.90;;;;;;5006842;28;20030;-75
2022/03/14 12:35:17;;;;;;;20.17;11.60;;;10.30;99.90;;;;;;4994158;28;20065;-75
2022/03/14 12:37:52;;;;;;;24.38;13.10;;;10.40;99.90;;;;;;4995382;28;20049;-76
2022/03/14 12:40:21;;;;;;;24.55;15.07;;;10.40;99.90;;;;;;5011020;28;20129;-76
2022/03/14 12:42:55;;;;;;;21.48;13.73;;;10.30;99.90;;;;;;4992783;28;20120;-76
2022/03/14 12:45:28;;;;;;;20.38;11.65;;;10.50;99.90;;;;;;5010232;28;20042;-76